createdAt,value
2023-11-23T00:01:00.955Z,-1.05
2023-11-23T00:03:43.254Z,-1.05
2023-11-23T00:06:15.461Z,-1.05
2023-11-23T00:08:47.493Z,-1.04
2023-11-23T00:11:19.525Z,-1.02
2023-11-23T00:13:52.019Z,-1.03
2023-11-23T00:16:23.993Z,-1.04
2023-11-23T00:18:55.983Z,-1.05
2023-11-23T00:21:28.059Z,-0.98
2023-11-23T00:24:00.117Z,-0.96
2023-11-23T00:26:33.238Z,-0.95
2023-11-23T00:29:06.393Z,-0.94
2023-11-23T00:31:38.431Z,-0.92
2023-11-23T00:34:10.486Z,-0.99
2023-11-23T00:36:42.669Z,-0.99
2023-11-23T00:39:14.694Z,-0.99
2023-11-23T00:41:46.740Z,-0.97
2023-11-23T00:44:19.295Z,-0.95
2023-11-23T00:46:51.615Z,-0.92
2023-11-23T00:49:24.068Z,-0.92
2023-11-23T00:51:56.537Z,-0.91
2023-11-23T00:54:28.884Z,-0.92
2023-11-23T00:57:01.014Z,-0.94
2023-11-23T00:59:33.076Z,-0.95
2023-11-23T01:02:05.527Z,-0.96
2023-11-23T01:04:38.908Z,-0.96
2023-11-23T01:07:11.133Z,-0.93
2023-11-23T01:09:43.206Z,-0.86
2023-11-23T01:12:15.765Z,-0.82
2023-11-23T01:14:47.819Z,-0.80
2023-11-23T01:17:19.828Z,-0.78
2023-11-23T01:19:52.054Z,-0.79
2023-11-23T01:22:24.092Z,-0.78
2023-11-23T01:24:56.834Z,-0.82
2023-11-23T01:27:28.875Z,-0.84
2023-11-23T01:30:00.875Z,-0.79
2023-11-23T01:32:33.749Z,-0.73
2023-11-23T01:35:07.453Z,-0.71
2023-11-23T01:37:39.474Z,-0.73
2023-11-23T01:40:13.414Z,-0.76
2023-11-23T01:42:47.070Z,-0.75
2023-11-23T01:45:23.693Z,-0.76
2023-11-23T01:47:56.061Z,-0.73
2023-11-23T01:50:29.515Z,-0.72
2023-11-23T01:53:01.958Z,-0.66
2023-11-23T01:55:34.373Z,-0.60
2023-11-23T01:58:08.799Z,-0.54
2023-11-23T02:00:40.791Z,-0.51
2023-11-23T02:03:13.097Z,-0.52
2023-11-23T02:05:45.926Z,-0.53
2023-11-23T02:08:17.951Z,-0.52
2023-11-23T02:10:49.936Z,-0.52
2023-11-23T02:13:21.883Z,-0.51
2023-11-23T02:15:53.940Z,-0.49
2023-11-23T02:18:26.795Z,-0.47
2023-11-23T02:20:58.908Z,-0.41
2023-11-23T02:23:32.282Z,-0.38
2023-11-23T02:26:04.329Z,-0.31
2023-11-23T02:28:37.671Z,-0.22
2023-11-23T02:31:09.827Z,-0.17
2023-11-23T02:33:41.865Z,-0.20
2023-11-23T02:36:14.125Z,-0.19
2023-11-23T02:38:46.231Z,-0.22
2023-11-23T02:41:18.184Z,-0.24
2023-11-23T02:43:51.057Z,-0.25
2023-11-23T02:46:23.069Z,-0.28
2023-11-23T02:48:55.045Z,-0.27
2023-11-23T02:51:27.660Z,-0.24
2023-11-23T02:53:59.649Z,-0.20
2023-11-23T02:56:32.189Z,-0.16
2023-11-23T02:59:04.384Z,-0.14
2023-11-23T03:01:36.496Z,-0.12
2023-11-23T03:04:08.887Z,-0.07
2023-11-23T03:06:40.944Z,-0.03
2023-11-23T03:09:14.041Z,-0.07
2023-11-23T03:11:46.037Z,-0.13
2023-11-23T03:14:18.109Z,-0.17
2023-11-23T03:16:51.802Z,-0.21
2023-11-23T03:19:23.845Z,-0.20
2023-11-23T03:21:55.853Z,-0.15
2023-11-23T03:24:28.068Z,-0.17
2023-11-23T03:27:00.591Z,-0.16
2023-11-23T03:29:32.629Z,-0.12
2023-11-23T03:32:04.851Z,-0.06
2023-11-23T03:34:36.832Z,0.02
2023-11-23T03:37:09.479Z,0.01
2023-11-23T03:39:41.454Z,0.00
2023-11-23T03:42:13.398Z,-0.01
2023-11-23T03:44:45.386Z,0.00
2023-11-23T03:47:17.841Z,0.02
2023-11-23T03:49:50.863Z,0.06
2023-11-23T03:52:23.322Z,0.06
2023-11-23T03:54:55.548Z,0.09
2023-11-23T03:57:27.542Z,0.16
2023-11-23T03:59:59.867Z,0.22
2023-11-23T04:02:31.875Z,0.27
2023-11-23T04:05:04.257Z,0.35
2023-11-23T04:07:36.291Z,0.42
2023-11-23T04:10:10.557Z,0.45
2023-11-23T04:12:42.539Z,0.51
2023-11-23T04:15:15.630Z,0.45
2023-11-23T04:17:47.656Z,0.48
2023-11-23T04:20:19.746Z,0.48
2023-11-23T04:22:51.711Z,0.45
2023-11-23T04:25:23.711Z,0.44
2023-11-23T04:27:55.669Z,0.47
2023-11-23T04:30:27.687Z,0.49
2023-11-23T04:33:00.257Z,0.52
2023-11-23T04:35:32.515Z,0.59
2023-11-23T04:38:04.516Z,0.65
2023-11-23T04:40:37.170Z,0.73
2023-11-23T04:43:09.217Z,0.74
2023-11-23T04:45:42.381Z,0.74
2023-11-23T04:48:14.551Z,0.80
2023-11-23T04:50:46.757Z,0.84
2023-11-23T04:53:19.725Z,0.86
2023-11-23T04:55:51.658Z,0.90
2023-11-23T04:58:25.891Z,0.96
2023-11-23T05:00:58.163Z,0.98
2023-11-23T05:03:31.511Z,1.01
2023-11-23T05:06:03.885Z,0.99
2023-11-23T05:08:37.923Z,0.99
2023-11-23T05:11:10.060Z,0.97
2023-11-23T05:13:42.165Z,0.97
2023-11-23T05:16:14.149Z,0.97
2023-11-23T05:18:46.170Z,1.03
2023-11-23T05:21:18.168Z,1.07
2023-11-23T05:23:50.457Z,1.09
2023-11-23T05:26:22.560Z,1.10
2023-11-23T05:28:54.636Z,1.08
2023-11-23T05:31:26.737Z,1.07
2023-11-23T05:33:58.828Z,1.14
2023-11-23T05:36:31.039Z,1.17
2023-11-23T05:39:03.079Z,1.18
2023-11-23T05:41:35.082Z,1.20
2023-11-23T05:44:07.547Z,1.19
2023-11-23T05:46:40.182Z,1.19
2023-11-23T05:49:13.295Z,1.21
2023-11-23T05:51:45.631Z,1.21
2023-11-23T05:54:17.729Z,1.24
2023-11-23T05:56:52.095Z,1.26
2023-11-23T05:59:24.162Z,1.28
2023-11-23T06:01:56.295Z,1.30
2023-11-23T06:04:28.533Z,1.35
2023-11-23T06:07:00.661Z,1.36
2023-11-23T06:09:32.591Z,1.41
2023-11-23T06:12:06.273Z,1.44
2023-11-23T06:14:39.252Z,1.46
2023-11-23T06:17:11.863Z,1.45
2023-11-23T06:19:44.562Z,1.45
2023-11-23T06:22:16.540Z,1.47
2023-11-23T06:24:48.817Z,1.50
2023-11-23T06:27:21.028Z,1.54
2023-11-23T06:29:53.903Z,1.58
2023-11-23T06:32:26.076Z,1.63
2023-11-23T06:34:58.071Z,1.65
2023-11-23T06:37:30.149Z,1.70
2023-11-23T06:40:02.167Z,1.68
2023-11-23T06:42:36.347Z,1.69
2023-11-23T06:45:14.971Z,1.68
2023-11-23T06:47:47.089Z,1.69
2023-11-23T06:50:19.339Z,1.73
2023-11-23T06:52:51.718Z,1.75
2023-11-23T06:55:23.827Z,1.77
2023-11-23T06:57:55.848Z,1.79
2023-11-23T07:00:27.927Z,1.81
2023-11-23T07:03:02.694Z,1.81
2023-11-23T07:05:34.807Z,1.81
2023-11-23T07:08:07.577Z,1.79
2023-11-23T07:10:42.477Z,1.81
2023-11-23T07:13:15.088Z,1.83
2023-11-23T07:15:48.045Z,1.85
2023-11-23T07:18:20.460Z,1.87
2023-11-23T07:20:54.653Z,1.89
2023-11-23T07:23:27.474Z,1.89
2023-11-23T07:25:59.538Z,1.91
2023-11-23T07:28:31.708Z,1.94
2023-11-23T07:31:03.885Z,1.96
2023-11-23T07:33:36.867Z,1.97
2023-11-23T07:36:10.654Z,1.98
2023-11-23T07:38:46.382Z,2.01
2023-11-23T07:41:19.376Z,2.04
2023-11-23T07:43:51.998Z,2.08
2023-11-23T07:46:25.146Z,2.11
2023-11-23T07:48:58.019Z,2.08
2023-11-23T07:51:30.039Z,2.11
2023-11-23T07:54:02.098Z,2.14
2023-11-23T07:56:36.042Z,2.22
2023-11-23T07:59:08.257Z,2.24
2023-11-23T08:01:40.404Z,2.24
2023-11-23T08:04:13.120Z,2.26
2023-11-23T08:06:45.278Z,2.31
2023-11-23T08:09:20.564Z,2.35
2023-11-23T08:11:54.212Z,2.41
2023-11-23T08:14:26.392Z,2.44
2023-11-23T08:16:58.413Z,2.47
2023-11-23T08:19:31.642Z,2.51
2023-11-23T08:22:06.879Z,2.58
2023-11-23T08:24:39.158Z,2.64
2023-11-23T08:27:11.703Z,2.64
2023-11-23T08:29:43.686Z,2.69
2023-11-23T08:32:16.693Z,2.70
2023-11-23T08:34:49.745Z,2.73
2023-11-23T08:37:21.800Z,2.76
2023-11-23T08:39:54.040Z,2.80
2023-11-23T08:42:26.067Z,2.84
2023-11-23T08:44:58.101Z,2.87
2023-11-23T08:47:30.675Z,2.89
2023-11-23T08:50:02.593Z,2.91
2023-11-23T08:52:34.586Z,3.00
2023-11-23T08:55:08.870Z,3.06
2023-11-23T08:57:42.070Z,3.11
2023-11-23T09:00:17.755Z,3.13
2023-11-23T09:02:51.835Z,3.16
2023-11-23T09:05:24.654Z,3.21
2023-11-23T09:07:56.897Z,3.20
2023-11-23T09:10:28.842Z,3.24
2023-11-23T09:13:03.052Z,3.31
2023-11-23T09:15:35.199Z,3.36
2023-11-23T09:18:09.256Z,3.39
2023-11-23T09:20:41.517Z,3.39
2023-11-23T09:23:13.635Z,3.40
2023-11-23T09:25:45.625Z,3.45
2023-11-23T09:28:17.607Z,3.51
2023-11-23T09:30:49.663Z,3.58
2023-11-23T09:33:24.678Z,3.64
2023-11-23T09:35:58.278Z,3.67
2023-11-23T09:38:30.365Z,3.70
2023-11-23T09:41:03.529Z,3.72
2023-11-23T09:43:35.724Z,3.74
2023-11-23T09:46:08.621Z,3.73
2023-11-23T09:48:44.910Z,3.73
2023-11-23T09:51:15.774Z,3.77
2023-11-23T09:53:49.613Z,3.79
2023-11-23T09:56:21.692Z,3.88
2023-11-23T09:58:53.866Z,4.00
2023-11-23T10:01:29.294Z,4.09
2023-11-23T10:04:02.302Z,4.16
2023-11-23T10:06:35.047Z,4.20
2023-11-23T10:09:10.883Z,4.25
2023-11-23T10:11:44.157Z,4.33
2023-11-23T10:14:17.674Z,4.39
2023-11-23T10:16:49.697Z,4.43
2023-11-23T10:19:25.790Z,4.41
2023-11-23T10:22:00.998Z,4.43
2023-11-23T10:24:34.549Z,4.41
2023-11-23T10:27:07.997Z,4.44
2023-11-23T10:29:40.058Z,4.56
2023-11-23T10:32:13.775Z,4.69
2023-11-23T10:34:48.229Z,4.86
2023-11-23T10:37:25.478Z,5.00
2023-11-23T10:39:59.204Z,5.15
2023-11-23T10:42:34.327Z,5.22
2023-11-23T10:45:08.417Z,5.17
2023-11-23T10:47:43.529Z,5.11
2023-11-23T10:50:17.039Z,5.03
2023-11-23T10:52:49.899Z,5.02
2023-11-23T10:55:21.916Z,4.98
2023-11-23T10:57:59.768Z,4.99
2023-11-23T11:00:32.843Z,4.95
2023-11-23T11:03:09.917Z,4.91
2023-11-23T11:05:47.556Z,4.87
2023-11-23T11:08:28.185Z,4.84
2023-11-23T11:11:00.394Z,4.86
2023-11-23T11:13:35.905Z,4.84
2023-11-23T11:16:11.922Z,4.82
2023-11-23T11:18:51.631Z,4.78
2023-11-23T11:21:27.225Z,4.79
2023-11-23T11:24:00.783Z,4.80
2023-11-23T11:26:35.856Z,4.80
2023-11-23T11:29:10.068Z,4.79
2023-11-23T11:31:44.685Z,4.83
2023-11-23T11:34:21.788Z,4.84
2023-11-23T11:37:01.372Z,4.88
2023-11-23T11:39:38.315Z,4.95
2023-11-23T11:42:12.130Z,4.99
2023-11-23T11:44:47.743Z,4.94
2023-11-23T11:47:21.117Z,4.85
2023-11-23T11:49:53.922Z,4.79
2023-11-23T11:52:27.686Z,4.80
2023-11-23T11:55:00.573Z,4.79
2023-11-23T11:57:42.330Z,4.78
2023-11-23T12:00:15.865Z,4.76
2023-11-23T12:02:48.022Z,4.78
2023-11-23T12:05:22.278Z,4.84
2023-11-23T12:07:58.042Z,4.99
2023-11-23T12:10:39.841Z,5.20
2023-11-23T12:13:16.194Z,5.39
2023-11-23T12:15:48.376Z,5.56
2023-11-23T12:18:30.795Z,5.74
2023-11-23T12:21:01.411Z,5.77
2023-11-23T12:23:41.878Z,5.63
2023-11-23T12:26:14.550Z,5.51
2023-11-23T12:28:50.173Z,5.42
2023-11-23T12:31:22.940Z,5.36
2023-11-23T12:33:55.185Z,5.29
2023-11-23T12:36:27.308Z,5.23
2023-11-23T12:38:59.486Z,5.19
2023-11-23T12:41:42.460Z,5.21
2023-11-23T12:44:18.706Z,5.17
2023-11-23T12:46:51.428Z,5.07
2023-11-23T12:49:23.653Z,5.00
2023-11-23T12:51:55.953Z,4.97
2023-11-23T12:54:28.146Z,4.91
2023-11-23T12:57:00.345Z,4.85
2023-11-23T12:59:32.611Z,4.80
2023-11-23T13:02:05.164Z,4.74
2023-11-23T13:04:38.860Z,4.72
2023-11-23T13:07:11.651Z,4.76
2023-11-23T13:09:44.198Z,4.72
2023-11-23T13:12:19.054Z,4.65
2023-11-23T13:14:51.286Z,4.62
2023-11-23T13:17:24.484Z,4.60
2023-11-23T13:19:58.611Z,4.58
2023-11-23T13:22:30.678Z,4.54
2023-11-23T13:25:03.322Z,4.53
2023-11-23T13:27:36.440Z,4.53
2023-11-23T13:30:11.023Z,4.53
2023-11-23T13:32:44.180Z,4.51
2023-11-23T13:35:16.753Z,4.51
2023-11-23T13:37:48.931Z,4.54
2023-11-23T13:40:21.376Z,4.49
2023-11-23T13:42:54.148Z,4.48
2023-11-23T13:45:28.323Z,4.45
2023-11-23T13:48:02.472Z,4.46
2023-11-23T13:50:34.583Z,4.45
2023-11-23T13:53:08.081Z,4.43
2023-11-23T13:55:41.750Z,4.43
2023-11-23T13:58:15.032Z,4.44
2023-11-23T14:00:48.190Z,4.50
2023-11-23T14:03:20.443Z,4.54
2023-11-23T14:05:53.119Z,4.58
2023-11-23T14:08:25.288Z,4.59
2023-11-23T14:10:57.301Z,4.55
2023-11-23T14:13:29.605Z,4.51
2023-11-23T14:16:01.834Z,4.46
2023-11-23T14:18:34.108Z,4.44
2023-11-23T14:21:08.300Z,4.41
2023-11-23T14:23:40.892Z,4.41
2023-11-23T14:26:12.948Z,4.44
2023-11-23T14:28:45.209Z,4.43
2023-11-23T14:31:20.667Z,4.43
2023-11-23T14:33:55.277Z,4.44
2023-11-23T14:36:27.414Z,4.45
2023-11-23T14:38:59.925Z,4.48
2023-11-23T14:41:31.968Z,4.51
2023-11-23T14:44:04.756Z,4.51
2023-11-23T14:46:37.885Z,4.52
2023-11-23T14:49:11.299Z,4.52
2023-11-23T14:51:46.067Z,4.53
2023-11-23T14:54:24.864Z,4.55
2023-11-23T14:57:01.484Z,4.57
2023-11-23T14:59:33.533Z,4.58
2023-11-23T15:02:05.858Z,4.58
2023-11-23T15:04:38.130Z,4.58
2023-11-23T15:07:10.225Z,4.60
2023-11-23T15:09:43.074Z,4.63
2023-11-23T15:12:15.757Z,4.63
2023-11-23T15:14:47.865Z,4.66
2023-11-23T15:17:21.738Z,4.69
2023-11-23T15:19:53.840Z,4.72
2023-11-23T15:22:26.945Z,4.77
2023-11-23T15:25:05.961Z,4.78
2023-11-23T15:27:43.933Z,4.80
2023-11-23T15:30:16.545Z,4.83
2023-11-23T15:32:50.610Z,4.87
2023-11-23T15:35:22.910Z,4.89
2023-11-23T15:37:56.003Z,4.90
2023-11-23T15:40:28.092Z,4.92
2023-11-23T15:43:00.147Z,4.95
2023-11-23T15:45:32.696Z,4.98
2023-11-23T15:48:05.003Z,4.97
2023-11-23T15:50:37.114Z,4.99
2023-11-23T15:53:10.434Z,5.02
2023-11-23T15:55:42.518Z,5.04
2023-11-23T15:58:14.603Z,5.05
2023-11-23T16:00:46.879Z,5.05
2023-11-23T16:03:18.996Z,5.09
2023-11-23T16:05:52.293Z,5.12
2023-11-23T16:08:24.941Z,5.14
2023-11-23T16:10:57.487Z,5.13
2023-11-23T16:13:29.632Z,5.17
2023-11-23T16:16:01.824Z,5.19
2023-11-23T16:18:36.460Z,5.19
2023-11-23T16:21:09.218Z,5.20
2023-11-23T16:23:43.628Z,5.21
2023-11-23T16:26:15.772Z,5.22
2023-11-23T16:28:47.836Z,5.28
2023-11-23T16:31:20.675Z,5.27
2023-11-23T16:33:54.965Z,5.26
2023-11-23T16:36:33.713Z,5.27
2023-11-23T16:39:16.677Z,5.31
2023-11-23T16:41:49.650Z,5.32
2023-11-23T16:44:22.252Z,5.36
2023-11-23T16:46:57.310Z,5.40
2023-11-23T16:49:29.571Z,5.42
2023-11-23T16:52:01.898Z,5.45
2023-11-23T16:54:34.139Z,5.51
2023-11-23T16:57:06.774Z,5.53
2023-11-23T16:59:39.716Z,5.54
2023-11-23T17:02:11.803Z,5.58
2023-11-23T17:04:44.686Z,5.57
2023-11-23T17:07:18.207Z,5.59
2023-11-23T17:09:51.331Z,5.59
2023-11-23T17:12:24.657Z,5.61
2023-11-23T17:14:56.763Z,5.62
2023-11-23T17:17:28.951Z,5.61
2023-11-23T17:20:01.063Z,5.63
2023-11-23T17:22:35.678Z,5.66
2023-11-23T17:25:10.466Z,5.67
2023-11-23T17:27:48.448Z,5.68
2023-11-23T17:30:21.203Z,5.67
2023-11-23T17:32:53.555Z,5.67
2023-11-23T17:35:26.354Z,5.68
2023-11-23T17:37:58.526Z,5.69
2023-11-23T17:40:30.587Z,5.71
2023-11-23T17:43:02.678Z,5.71
2023-11-23T17:45:35.973Z,5.71
2023-11-23T17:48:09.334Z,5.71
2023-11-23T17:50:41.621Z,5.74
2023-11-23T17:53:14.285Z,5.76
2023-11-23T17:55:46.991Z,5.79
2023-11-23T17:58:19.002Z,5.83
2023-11-23T18:00:51.297Z,5.83
2023-11-23T18:03:23.579Z,5.82
2023-11-23T18:05:55.785Z,5.84
2023-11-23T18:08:28.150Z,5.85
2023-11-23T18:11:01.639Z,5.89
2023-11-23T18:13:33.766Z,5.94
2023-11-23T18:16:06.044Z,5.98
2023-11-23T18:18:42.062Z,5.99
2023-11-23T18:21:14.314Z,6.02
2023-11-23T18:23:46.852Z,6.05
2023-11-23T18:26:18.962Z,6.07
2023-11-23T18:28:51.795Z,6.07
2023-11-23T18:31:24.263Z,6.07
2023-11-23T18:33:56.569Z,6.06
2023-11-23T18:36:28.765Z,6.07
2023-11-23T18:39:01.579Z,6.10
2023-11-23T18:41:33.630Z,6.11
2023-11-23T18:44:06.450Z,6.12
2023-11-23T18:46:39.328Z,6.12
2023-11-23T18:49:11.491Z,6.14
2023-11-23T18:51:43.587Z,6.17
2023-11-23T18:54:16.329Z,6.19
2023-11-23T18:56:48.533Z,6.18
2023-11-23T18:59:20.605Z,6.17
2023-11-23T19:01:55.255Z,6.18
2023-11-23T19:04:27.651Z,6.16
2023-11-23T19:06:59.944Z,6.11
2023-11-23T19:09:33.761Z,6.06
2023-11-23T19:12:06.901Z,6.02
2023-11-23T19:14:39.629Z,5.95
2023-11-23T19:17:11.837Z,5.90
2023-11-23T19:19:44.651Z,5.86
2023-11-23T19:22:18.471Z,5.87
2023-11-23T19:24:52.946Z,5.91
2023-11-23T19:27:26.268Z,5.95
2023-11-23T19:29:59.390Z,6.00
2023-11-23T19:32:33.770Z,6.04
2023-11-23T19:35:10.592Z,6.10
2023-11-23T19:37:44.172Z,6.15
2023-11-23T19:40:19.420Z,6.21
2023-11-23T19:42:53.401Z,6.31
2023-11-23T19:45:28.460Z,6.36
2023-11-23T19:48:02.275Z,6.42
2023-11-23T19:50:36.597Z,6.50
2023-11-23T19:53:12.959Z,6.56
2023-11-23T19:55:45.926Z,6.63
2023-11-23T19:58:18.105Z,6.67
2023-11-23T20:00:50.385Z,6.71
2023-11-23T20:03:22.562Z,6.72
2023-11-23T20:05:54.660Z,6.74
2023-11-23T20:08:27.157Z,6.77
2023-11-23T20:10:59.203Z,6.76
2023-11-23T20:13:31.413Z,6.80
2023-11-23T20:16:04.057Z,6.82
2023-11-23T20:18:37.218Z,6.84
2023-11-23T20:21:12.011Z,6.87
2023-11-23T20:23:44.333Z,6.88
2023-11-23T20:26:16.458Z,6.88
2023-11-23T20:28:48.731Z,6.91
2023-11-23T20:31:21.499Z,6.92
2023-11-23T20:33:53.773Z,6.94
2023-11-23T20:36:25.967Z,6.97
2023-11-23T20:38:58.861Z,6.97
2023-11-23T20:41:31.080Z,6.99
2023-11-23T20:44:03.900Z,6.99
2023-11-23T20:46:36.195Z,6.99
2023-11-23T20:49:08.650Z,7.00
2023-11-23T20:51:41.460Z,6.99
2023-11-23T20:54:14.301Z,7.00
2023-11-23T20:56:48.702Z,7.02
2023-11-23T20:59:21.865Z,7.05
2023-11-23T21:01:55.758Z,7.08
2023-11-23T21:04:31.257Z,7.11
2023-11-23T21:07:08.852Z,7.13
2023-11-23T21:09:42.062Z,7.14
2023-11-23T21:12:24.533Z,7.17
2023-11-23T21:14:59.481Z,7.17
2023-11-23T21:17:31.647Z,7.19
2023-11-23T21:20:05.844Z,7.20
2023-11-23T21:22:38.047Z,7.22
2023-11-23T21:25:11.384Z,7.26
2023-11-23T21:27:43.630Z,7.27
2023-11-23T21:30:16.252Z,7.28
2023-11-23T21:32:48.731Z,7.28
2023-11-23T21:35:22.532Z,7.26
2023-11-23T21:37:54.796Z,7.28
2023-11-23T21:40:27.428Z,7.28
2023-11-23T21:42:59.672Z,7.29
2023-11-23T21:45:32.024Z,7.32
2023-11-23T21:48:04.162Z,7.38
2023-11-23T21:50:37.901Z,7.39
2023-11-23T21:53:10.113Z,7.38
2023-11-23T21:55:42.308Z,7.41
2023-11-23T21:58:15.307Z,7.41
2023-11-23T22:00:47.372Z,7.39
2023-11-23T22:03:19.593Z,7.39
2023-11-23T22:05:51.768Z,7.39
2023-11-23T22:08:23.858Z,7.39
2023-11-23T22:10:55.884Z,7.39
2023-11-23T22:13:27.958Z,7.41
2023-11-23T22:16:01.385Z,7.40
2023-11-23T22:18:34.465Z,7.41
2023-11-23T22:21:08.922Z,7.41
2023-11-23T22:23:41.718Z,7.39
2023-11-23T22:26:16.261Z,7.37
2023-11-23T22:28:49.245Z,7.36
2023-11-23T22:31:23.142Z,7.37
2023-11-23T22:33:56.303Z,7.40
2023-11-23T22:36:30.894Z,7.40
2023-11-23T22:39:04.482Z,7.39
2023-11-23T22:41:38.827Z,7.42
2023-11-23T22:44:14.099Z,7.42
2023-11-23T22:46:47.348Z,7.40
2023-11-23T22:49:19.399Z,7.39
2023-11-23T22:51:51.419Z,7.39
2023-11-23T22:54:23.468Z,7.39
2023-11-23T22:56:55.687Z,7.41
2023-11-23T22:59:27.715Z,7.43
2023-11-23T23:02:00.086Z,7.44
2023-11-23T23:04:32.628Z,7.45
2023-11-23T23:07:07.253Z,7.45
2023-11-23T23:09:39.285Z,7.47
2023-11-23T23:12:11.910Z,7.46
2023-11-23T23:14:44.903Z,7.45
2023-11-23T23:17:16.898Z,7.44
2023-11-23T23:19:48.959Z,7.44
2023-11-23T23:22:26.741Z,7.43
2023-11-23T23:25:01.322Z,7.41
2023-11-23T23:27:34.012Z,7.45
2023-11-23T23:30:07.413Z,7.46
2023-11-23T23:32:40.000Z,7.48
2023-11-23T23:35:13.244Z,7.48
2023-11-23T23:37:45.372Z,7.47
2023-11-23T23:40:17.530Z,7.43
2023-11-23T23:42:50.240Z,7.40
2023-11-23T23:45:22.530Z,7.37
2023-11-23T23:47:55.447Z,7.32
2023-11-23T23:50:27.538Z,7.31
2023-11-23T23:52:59.510Z,7.29
2023-11-23T23:55:31.559Z,7.26
2023-11-23T23:58:05.681Z,7.23
